Time;durP1;ratioP1;P1;durP2;ratioP2;P2;SDS_P1;SDS_P2;PMS_P1;PMS_P2;Temp;Humidity;BMP_temperature;BMP_pressure;BME280_temperature;BME280_humidity;BME280_pressure;Samples;Min_cycle;Max_cycle;Signal;HPM_P1;HPM_P2
2023/04/26 00:00:49;;;;;;;2.83;1.67;;;;;;;2.81;89.75;100542.16;5042888;28;20232;-83
2023/04/26 00:03:15;;;;;;;6.07;2.30;;;;;;;2.94;91.17;100520.00;5048082;28;20572;-83
2023/04/26 00:05:42;;;;;;;4.77;2.00;;;;;;;2.90;90.25;100531.13;5043965;28;20214;-83
2023/04/26 00:08:09;;;;;;;5.17;1.60;;;;;;;2.83;89.78;100531.88;5043436;28;20218;-83
2023/04/26 00:10:36;;;;;;;4.33;2.10;;;;;;;2.76;90.37;100529.19;5043656;28;20202;-84
2023/04/26 00:13:03;;;;;;;8.10;2.33;;;;;;;2.72;90.66;100519.69;5041741;28;20226;-80
2023/04/26 00:15:31;;;;;;;4.87;1.70;;;;;;;2.68;90.16;100527.38;5037442;28;20213;-82
2023/04/26 00:17:57;;;;;;;6.10;1.77;;;;;;;2.67;90.39;100528.19;5036857;28;20233;-80
2023/04/26 00:20:24;;;;;;;6.60;2.33;;;;;;;2.59;90.79;100521.22;5037107;28;20224;-80
2023/04/26 00:22:51;;;;;;;4.13;2.10;;;;;;;2.62;91.03;100514.38;5037156;28;20248;-80
2023/04/26 00:25:17;;;;;;;3.83;2.13;;;;;;;2.75;91.33;100512.00;5037086;28;20653;-80
2023/04/26 00:27:44;;;;;;;2.50;2.00;;;;;;;2.89;91.85;100494.13;5036549;28;20230;-82
2023/04/26 00:30:12;;;;;;;2.53;1.80;;;;;;;3.06;91.24;100496.09;5036028;28;20225;-83
2023/04/26 00:32:39;;;;;;;5.10;2.10;;;;;;;2.91;90.16;100520.81;5036913;28;20632;-83
2023/04/26 00:35:07;;;;;;;18.27;3.90;;;;;;;2.92;89.97;100532.00;5037100;28;20206;-83
2023/04/26 00:37:34;;;;;;;6.37;2.40;;;;;;;2.64;89.87;100536.75;5036021;28;20241;-83
2023/04/26 00:40:01;;;;;;;3.50;1.70;;;;;;;2.68;91.55;100523.06;5036352;28;20206;-79
2023/04/26 00:42:28;;;;;;;3.70;2.10;;;;;;;2.85;91.41;100507.84;5036464;28;20676;-80
2023/04/26 00:44:56;;;;;;;5.40;1.90;;;;;;;2.86;90.37;100516.47;5036369;28;20699;-80
2023/04/26 00:47:23;;;;;;;3.30;1.70;;;;;;;3.01;90.53;100528.66;5038009;28;20230;-80
2023/04/26 00:49:52;;;;;;;5.43;2.67;;;;;;;2.90;89.85;100542.28;5037984;28;20209;-82
2023/04/26 00:52:18;;;;;;;5.10;1.80;;;;;;;3.01;89.36;100552.72;5037619;28;20677;-82
2023/04/26 00:54:45;;;;;;;4.90;2.20;;;;;;;2.93;89.40;100552.66;5038028;28;20320;-80
2023/04/26 00:57:12;;;;;;;2.80;2.03;;;;;;;3.01;88.27;100563.06;5037545;28;20222;-83
2023/04/26 00:59:38;;;;;;;7.10;2.43;;;;;;;3.09;88.92;100576.06;5037968;28;20206;-80
2023/04/26 01:02:05;;;;;;;2.97;1.97;;;;;;;3.12;87.92;100586.44;5046960;28;20738;-82
2023/04/26 01:04:32;;;;;;;3.70;1.70;;;;;;;3.09;87.75;100599.25;5038411;28;20589;-82
2023/04/26 01:07:02;;;;;;;5.37;2.27;;;;;;;2.95;87.43;100614.53;5037959;28;20227;-81
2023/04/26 01:09:31;;;;;;;2.37;2.17;;;;;;;3.06;88.39;100602.69;5038739;28;20580;-81
2023/04/26 01:11:59;;;;;;;5.47;1.83;;;;;;;2.92;87.47;100622.25;5037853;28;20365;-82
2023/04/26 01:14:25;;;;;;;3.20;1.80;;;;;;;3.03;87.71;100619.81;5039052;28;20256;-82
2023/04/26 01:16:52;;;;;;;4.50;2.07;;;;;;;3.04;87.35;100635.31;5038008;28;20236;-83
2023/04/26 01:19:20;;;;;;;4.70;1.53;;;;;;;3.06;86.98;100643.06;5037376;28;20228;-79
2023/04/26 01:21:49;;;;;;;4.60;1.43;;;;;;;3.04;87.18;100643.03;5037340;28;20202;-83
2023/04/26 01:24:17;;;;;;;5.73;1.80;;;;;;;3.14;86.88;100644.06;5037986;28;20198;-83
2023/04/26 01:26:45;;;;;;;4.33;1.87;;;;;;;3.14;86.21;100668.13;5037992;28;20217;-83
2023/04/26 01:29:16;;;;;;;3.50;1.60;;;;;;;3.11;86.14;100668.09;5038314;28;20201;-82
2023/04/26 01:31:43;;;;;;;5.87;1.93;;;;;;;3.12;86.28;100671.53;5048473;28;20213;-82
2023/04/26 01:34:09;;;;;;;2.93;1.70;;;;;;;3.07;85.66;100691.22;5044660;28;20232;-83
2023/04/26 01:36:36;;;;;;;4.13;2.07;;;;;;;2.97;86.59;100690.19;5037796;28;20207;-83
2023/04/26 01:39:03;;;;;;;5.90;2.10;;;;;;;2.95;86.59;100679.00;5037557;28;20206;-82
2023/04/26 01:41:32;;;;;;;4.07;1.77;;;;;;;2.88;86.14;100682.34;5038250;28;20221;-82
2023/04/26 01:43:59;;;;;;;2.50;1.63;;;;;;;2.88;86.70;100677.19;5037369;28;20219;-83
2023/04/26 01:46:25;;;;;;;4.33;2.30;;;;;;;2.76;87.52;100672.69;5036879;28;20673;-83
2023/04/26 01:48:52;;;;;;;4.30;2.17;;;;;;;2.63;88.01;100655.28;5037047;28;20793;-82
2023/04/26 01:51:19;;;;;;;2.77;1.73;;;;;;;2.74;88.00;100638.28;5037134;28;20213;-83
2023/04/26 01:53:45;;;;;;;4.63;1.80;;;;;;;2.74;87.95;100638.28;5037614;28;20241;-82
2023/04/26 01:56:12;;;;;;;5.30;2.30;;;;;;;2.82;87.58;100636.69;5037422;28;20201;-81
2023/04/26 01:58:43;;;;;;;5.03;2.10;;;;;;;2.66;88.92;100629.56;5036792;28;20724;-82
2023/04/26 02:01:10;;;;;;;5.63;2.50;;;;;;;2.60;88.63;100625.19;5038531;28;20314;-82
2023/04/26 02:03:36;;;;;;;3.93;2.00;;;;;;;2.56;89.37;100606.22;5037394;28;20225;-82
2023/04/26 02:06:03;;;;;;;3.60;2.53;;;;;;;2.57;89.27;100599.34;5038199;28;20209;-83
2023/04/26 02:08:30;;;;;;;4.10;1.80;;;;;;;2.57;88.95;100596.78;5038223;28;20244;-82
2023/04/26 02:10:57;;;;;;;4.97;2.63;;;;;;;2.57;88.75;100597.63;5037023;28;20206;-83
2023/04/26 02:13:24;;;;;;;3.57;2.10;;;;;;;2.52;89.12;100594.13;5038020;28;20230;-82
2023/04/26 02:15:52;;;;;;;6.60;1.90;;;;;;;2.55;89.09;100594.16;5037071;28;20623;-83
2023/04/26 02:18:20;;;;;;;5.93;2.60;;;;;;;2.57;88.61;100602.78;5036890;28;20259;-83
2023/04/26 02:20:48;;;;;;;2.93;1.70;;;;;;;2.63;88.59;100596.88;5037195;28;20205;-80
2023/04/26 02:23:14;;;;;;;3.77;2.07;;;;;;;2.53;88.16;100613.88;5037071;28;20212;-83
2023/04/26 02:25:42;;;;;;;4.43;2.30;;;;;;;2.46;89.08;100606.91;5037819;28;20264;-83
2023/04/26 02:28:08;;;;;;;3.60;2.23;;;;;;;2.45;88.54;100594.84;5037907;28;20252;-83
2023/04/26 02:30:35;;;;;;;4.10;2.40;;;;;;;2.50;88.42;100595.81;5038519;28;20233;-83
2023/04/26 02:33:06;;;;;;;4.67;2.10;;;;;;;2.51;87.48;100605.25;5074846;28;20189;-81
2023/04/26 02:35:32;;;;;;;7.60;2.43;;;;;;;2.48;88.57;100609.50;5078234;28;20269;-81
2023/04/26 02:37:59;;;;;;;3.83;2.07;;;;;;;2.47;88.46;100610.34;5078127;28;20240;-81
2023/04/26 02:40:25;;;;;;;3.27;2.17;;;;;;;2.51;87.76;100613.00;5078228;28;20223;-80
2023/04/26 02:42:52;;;;;;;3.17;2.20;;;;;;;2.52;87.64;100624.19;5076837;28;20196;-81
2023/04/26 02:45:19;;;;;;;3.57;2.07;;;;;;;2.54;88.11;100625.09;5054709;28;20550;-80
2023/04/26 02:47:45;;;;;;;4.50;2.17;;;;;;;2.55;87.72;100637.97;5054221;28;20240;-81
2023/04/26 02:50:13;;;;;;;4.13;2.20;;;;;;;2.54;87.47;100645.69;5054130;28;20300;-80
2023/04/26 02:52:40;;;;;;;3.30;2.17;;;;;;;2.45;87.38;100648.09;5053946;28;20209;-80
2023/04/26 02:55:07;;;;;;;2.20;2.00;;;;;;;2.43;87.76;100634.31;5053951;28;20221;-81
2023/04/26 02:57:34;;;;;;;4.30;2.50;;;;;;;2.36;88.23;100623.91;5053793;28;20233;-81
2023/04/26 03:00:01;;;;;;;3.30;2.17;;;;;;;2.38;88.42;100624.81;5053390;28;20680;-82
2023/04/26 03:02:27;;;;;;;2.40;1.73;;;;;;;2.31;88.24;100620.38;5053039;28;20968;-81
2023/04/26 03:04:57;;;;;;;2.80;2.30;;;;;;;2.30;88.12;100621.25;5035100;28;20210;-81
2023/04/26 03:07:25;;;;;;;5.30;2.43;;;;;;;2.20;88.89;100616.78;5033674;28;20226;-82
2023/04/26 03:09:52;;;;;;;3.67;1.90;;;;;;;2.25;89.06;100607.41;5033874;28;20206;-83
2023/04/26 03:12:19;;;;;;;3.33;2.27;;;;;;;2.23;89.42;100591.06;5033835;28;20695;-80
2023/04/26 03:14:46;;;;;;;3.17;1.77;;;;;;;2.25;89.33;100589.38;5033462;28;20262;-79
2023/04/26 03:17:12;;;;;;;4.73;2.63;;;;;;;2.06;89.88;100584.72;5033486;28;20237;-79
2023/04/26 03:19:39;;;;;;;8.27;2.60;;;;;;;2.02;90.74;100568.34;5033667;28;20241;-79
2023/04/26 03:22:06;;;;;;;6.80;2.33;;;;;;;2.11;90.61;100554.78;5034142;28;20304;-79
2023/04/26 03:24:33;;;;;;;6.03;2.97;;;;;;;2.17;90.70;100548.03;5033833;28;20202;-80
2023/04/26 03:27:01;;;;;;;2.97;1.90;;;;;;;2.15;89.83;100559.16;5033246;28;20659;-81
2023/04/26 03:29:27;;;;;;;6.27;3.10;;;;;;;2.18;89.30;100565.22;5033545;28;20206;-80
2023/04/26 03:31:54;;;;;;;9.27;3.07;;;;;;;2.03;90.58;100566.66;5045829;28;20210;-80
2023/04/26 03:34:21;;;;;;;5.00;2.17;;;;;;;2.12;90.53;100552.25;5039841;28;20232;-80
2023/04/26 03:36:47;;;;;;;3.20;1.97;;;;;;;2.17;90.46;100540.31;5037617;28;20205;-80
2023/04/26 03:39:15;;;;;;;4.10;1.90;;;;;;;2.17;90.05;100552.31;5037650;28;20214;-79
2023/04/26 03:41:44;;;;;;;3.50;2.27;;;;;;;2.17;89.19;100566.06;5037926;28;20588;-79
2023/04/26 03:44:14;;;;;;;6.30;2.53;;;;;;;2.23;89.16;100572.16;5038120;28;20268;-80
2023/04/26 03:46:40;;;;;;;5.77;2.37;;;;;;;2.26;89.19;100575.66;5040601;28;20221;-79
2023/04/26 03:49:07;;;;;;;2.97;2.47;;;;;;;2.23;89.39;100578.19;5039466;28;20217;-80
2023/04/26 03:51:34;;;;;;;4.90;2.07;;;;;;;2.13;89.28;100587.44;5039222;28;20285;-81
2023/04/26 03:54:00;;;;;;;5.33;2.47;;;;;;;2.10;90.40;100587.41;5036727;28;20251;-83
2023/04/26 03:56:26;;;;;;;3.00;2.10;;;;;;;2.12;90.36;100583.16;5037126;28;20210;-80
2023/04/26 03:58:54;;;;;;;3.77;2.80;;;;;;;2.03;91.19;100574.41;5037899;28;20332;-83
2023/04/26 04:01:20;;;;;;;3.70;2.57;;;;;;;2.07;90.96;100564.16;5044677;28;20213;-81
2023/04/26 04:03:46;;;;;;;3.63;2.70;;;;;;;2.05;90.60;100560.69;5057055;28;20275;-83
2023/04/26 04:06:13;;;;;;;6.50;3.20;;;;;;;1.94;90.91;100564.78;5057087;28;20206;-83
2023/04/26 04:08:39;;;;;;;3.63;2.53;;;;;;;2.09;91.24;100546.19;5057310;28;20221;-83
2023/04/26 04:11:06;;;;;;;4.17;2.13;;;;;;;2.11;91.20;100544.50;5052811;28;20210;-83
2023/04/26 04:13:32;;;;;;;3.50;2.60;;;;;;;2.04;90.74;100551.22;5045711;28;20206;-82
2023/04/26 04:16:00;;;;;;;6.33;2.60;;;;;;;2.06;92.06;100540.97;5037547;28;20207;-80
2023/04/26 04:18:26;;;;;;;3.60;2.70;;;;;;;2.08;92.11;100532.44;5051215;22;20318;-74
2023/04/26 04:20:53;;;;;;;4.20;2.30;;;;;;;2.16;91.81;100530.88;5034405;28;20238;-74
2023/04/26 04:23:19;;;;;;;8.13;3.00;;;;;;;2.15;91.19;100539.41;5034541;28;20263;-73
2023/04/26 04:25:47;;;;;;;3.50;2.43;;;;;;;2.24;91.33;100546.44;5034504;28;20202;-74
2023/04/26 04:28:14;;;;;;;5.13;2.60;;;;;;;2.24;90.88;100550.72;5034588;28;20231;-73
2023/04/26 04:30:42;;;;;;;5.20;2.27;;;;;;;2.20;91.00;100554.97;5034674;28;20206;-74
2023/04/26 04:33:11;;;;;;;4.80;2.80;;;;;;;2.11;91.71;100552.22;5034588;28;20209;-74
2023/04/26 04:35:37;;;;;;;7.23;3.27;;;;;;;2.17;91.74;100545.47;5034511;28;20226;-73
2023/04/26 04:38:03;;;;;;;3.50;2.63;;;;;;;2.25;91.46;100543.00;5034706;28;20226;-73
2023/04/26 04:40:30;;;;;;;4.00;2.43;;;;;;;2.31;92.03;100545.69;5033989;28;20214;-74
2023/04/26 04:42:59;;;;;;;4.20;3.40;;;;;;;2.26;92.56;100539.63;5034518;28;20202;-73
2023/04/26 04:45:26;;;;;;;3.50;2.80;;;;;;;2.14;94.08;100514.53;5034506;28;20210;-73
2023/04/26 04:47:53;;;;;;;3.80;3.20;;;;;;;2.28;94.20;100494.16;5033281;28;20236;-73
2023/04/26 04:50:22;;;;;;;7.53;3.53;;;;;;;2.14;94.50;100493.94;5034002;28;20812;-74
2023/04/26 04:52:48;;;;;;;5.30;3.20;;;;;;;2.37;95.05;100475.38;5033880;28;20207;-73
2023/04/26 04:55:15;;;;;;;6.30;3.70;;;;;;;2.32;94.50;100475.31;5034006;28;20230;-73
2023/04/26 04:57:41;;;;;;;6.07;3.20;;;;;;;2.39;95.06;100474.53;5034151;28;20229;-73
2023/04/26 05:00:11;;;;;;;6.90;3.43;;;;;;;2.54;95.54;100467.91;5033901;28;20580;-73
2023/04/26 05:02:37;;;;;;;8.60;4.07;;;;;;;2.66;95.20;100470.66;5034039;28;20558;-73
2023/04/26 05:05:05;;;;;;;5.10;3.80;;;;;;;2.77;95.21;100466.50;5034018;28;20209;-73
2023/04/26 05:07:33;;;;;;;7.43;3.27;;;;;;;2.64;94.75;100474.91;5033706;28;20237;-73
2023/04/26 05:09:59;;;;;;;8.23;3.23;;;;;;;2.79;95.49;100471.66;5033855;28;20706;-73
2023/04/26 05:12:26;;;;;;;5.23;4.00;;;;;;;2.69;95.29;100469.81;5033841;28;20202;-73
2023/04/26 05:14:52;;;;;;;6.90;3.50;;;;;;;2.80;95.20;100472.56;5033790;28;20268;-73
2023/04/26 05:17:19;;;;;;;8.70;3.73;;;;;;;2.80;94.89;100468.25;5033711;28;20280;-73
2023/04/26 05:19:45;;;;;;;6.20;3.40;;;;;;;2.98;94.27;100477.94;5033665;28;20214;-73
2023/04/26 05:22:16;;;;;;;6.37;4.07;;;;;;;3.07;93.31;100498.69;5033505;28;20260;-73
2023/04/26 05:24:45;;;;;;;8.27;3.83;;;;;;;3.12;93.03;100512.50;5033613;28;20199;-74
2023/04/26 05:27:11;;;;;;;6.33;4.17;;;;;;;3.00;92.06;100542.44;5033354;28;20283;-74
2023/04/26 05:29:38;;;;;;;5.93;3.40;;;;;;;3.04;92.16;100545.06;5033534;28;20260;-73
2023/04/26 05:32:04;;;;;;;6.73;3.70;;;;;;;3.07;92.46;100541.63;5033388;28;20614;-73
2023/04/26 05:34:31;;;;;;;6.83;3.83;;;;;;;3.16;92.16;100552.09;5033339;28;20230;-73
2023/04/26 05:36:57;;;;;;;6.87;3.30;;;;;;;3.26;92.30;100556.50;5033128;28;20259;-73
2023/04/26 05:39:24;;;;;;;5.73;3.67;;;;;;;3.32;91.52;100576.38;5033349;28;20277;-73
2023/04/26 05:41:51;;;;;;;8.33;4.00;;;;;;;3.12;92.54;100581.25;5033093;28;20684;-73
2023/04/26 05:44:18;;;;;;;6.80;4.00;;;;;;;3.18;92.80;100576.19;5033287;28;20207;-73
2023/04/26 05:46:46;;;;;;;4.87;3.60;;;;;;;3.09;92.96;100555.41;5033410;28;20721;-73
2023/04/26 05:49:12;;;;;;;8.23;4.00;;;;;;;3.34;94.87;100548.88;5033063;28;20206;-73
2023/04/26 05:51:38;;;;;;;15.43;4.53;;;;;;;3.60;96.97;100507.03;5032946;28;20215;-73
2023/04/26 05:54:05;;;;;;;11.87;6.23;;;;;;;3.56;95.20;100519.88;5033246;28;20210;-74
2023/04/26 05:56:31;;;;;;;19.50;6.50;;;;;;;3.98;100.00;100473.81;5033004;28;20206;-74
2023/04/26 05:58:59;;;;;;;8.23;4.83;;;;;;;3.90;96.24;100467.72;5032956;28;20226;-74
2023/04/26 06:01:26;;;;;;;10.70;4.60;;;;;;;3.76;95.32;100519.22;5032927;28;20209;-74
2023/04/26 06:03:52;;;;;;;8.10;3.57;;;;;;;3.52;94.20;100537.91;5032849;28;20207;-74
2023/04/26 06:06:19;;;;;;;8.30;4.50;;;;;;;3.56;93.87;100542.25;5033100;28;20206;-74
2023/04/26 06:08:45;;;;;;;8.53;4.23;;;;;;;3.71;93.90;100551.91;5032852;28;20317;-74
2023/04/26 06:11:12;;;;;;;6.77;4.00;;;;;;;3.64;93.57;100563.84;5032676;28;20678;-74
2023/04/26 06:13:38;;;;;;;5.87;3.50;;;;;;;3.67;92.80;100581.09;5032878;28;20211;-74
2023/04/26 06:16:07;;;;;;;8.37;4.03;;;;;;;3.78;92.56;100582.94;5032692;28;20258;-74
2023/04/26 06:18:33;;;;;;;6.70;4.23;;;;;;;3.71;91.88;100588.88;5032348;28;20270;-74
2023/04/26 06:20:59;;;;;;;4.20;3.23;;;;;;;3.78;91.38;100606.16;5032859;28;20215;-74
2023/04/26 06:23:26;;;;;;;12.97;3.80;;;;;;;3.91;89.92;100640.75;5032798;28;20230;-74
2023/04/26 06:25:52;;;;;;;6.73;3.30;;;;;;;3.97;89.63;100653.72;5032521;28;20736;-76
2023/04/26 06:28:18;;;;;;;5.37;3.50;;;;;;;4.00;89.37;100660.63;5032376;28;20226;-73
2023/04/26 06:30:45;;;;;;;7.40;3.83;;;;;;;4.07;88.18;100672.78;5032373;28;20264;-73
2023/04/26 06:33:13;;;;;;;7.10;3.37;;;;;;;4.14;88.46;100684.03;5032286;28;20293;-73
2023/04/26 06:35:40;;;;;;;5.77;3.50;;;;;;;4.16;87.32;100696.16;5032533;28;20230;-73
2023/04/26 06:38:06;;;;;;;7.33;4.07;;;;;;;4.29;87.74;100719.53;5032513;28;20260;-74
2023/04/26 06:40:34;;;;;;;10.00;3.77;;;;;;;4.17;87.52;100746.97;5037852;28;20217;-73
2023/04/26 06:43:00;;;;;;;6.60;3.23;;;;;;;4.19;87.07;100757.31;5051923;28;20207;-74
2023/04/26 06:45:26;;;;;;;7.90;3.97;;;;;;;4.19;86.50;100777.97;5052343;28;20617;-77
2023/04/26 06:47:53;;;;;;;10.10;3.20;;;;;;;4.25;86.94;100778.06;5053275;28;20229;-74
2023/04/26 06:50:21;;;;;;;4.67;3.60;;;;;;;4.33;87.07;100783.31;5052065;28;20245;-73
2023/04/26 06:52:47;;;;;;;7.33;3.43;;;;;;;4.46;86.05;100774.88;5052169;28;20215;-74
2023/04/26 06:55:13;;;;;;;8.50;3.57;;;;;;;4.45;84.81;100816.19;5051846;28;20282;-74
2023/04/26 06:57:41;;;;;;;7.77;3.20;;;;;;;4.57;84.64;100829.28;5051858;28;20226;-74
2023/04/26 07:00:09;;;;;;;9.73;3.63;;;;;;;4.68;83.94;100838.03;5051554;28;20678;-73
2023/04/26 07:02:35;;;;;;;5.47;3.03;;;;;;;4.83;83.75;100854.56;5051823;28;20209;-74
2023/04/26 07:05:02;;;;;;;4.77;3.40;;;;;;;4.97;83.56;100868.50;5043343;28;20262;-74
2023/04/26 07:07:30;;;;;;;6.27;3.13;;;;;;;4.93;82.71;100887.44;5031107;28;20288;-74
2023/04/26 07:09:56;;;;;;;4.93;2.90;;;;;;;4.84;81.25;100915.81;5030749;28;20274;-73
2023/04/26 07:12:23;;;;;;;12.23;4.00;;;;;;;4.92;81.39;100940.91;5031502;28;20203;-73
2023/04/26 07:14:49;;;;;;;6.13;3.60;;;;;;;5.07;81.93;100936.75;5031021;28;20696;-73
2023/04/26 07:17:15;;;;;;;4.53;2.60;;;;;;;5.15;81.60;100948.94;5031522;28;20632;-74
2023/04/26 07:19:42;;;;;;;9.27;3.50;;;;;;;5.34;83.14;100941.38;5031014;28;20215;-74
2023/04/26 07:22:09;;;;;;;7.57;3.00;;;;;;;5.23;80.50;100958.50;5031398;28;20288;-73
2023/04/26 07:24:37;;;;;;;4.20;2.83;;;;;;;5.35;80.60;100971.56;5031362;28;20285;-74
2023/04/26 07:27:04;;;;;;;4.77;2.83;;;;;;;5.27;78.34;101001.69;5031088;28;20699;-74
2023/04/26 07:29:30;;;;;;;6.53;2.40;;;;;;;5.30;78.63;101025.03;5030872;28;20198;-73
2023/04/26 07:31:57;;;;;;;3.83;2.30;;;;;;;5.30;78.63;101031.06;5031692;28;20202;-74
2023/04/26 07:34:24;;;;;;;5.97;3.53;;;;;;;5.44;79.62;101038.13;5031902;28;20206;-74
2023/04/26 07:36:50;;;;;;;7.30;3.20;;;;;;;5.54;79.05;101043.41;5031391;28;20218;-74
2023/04/26 07:39:17;;;;;;;6.20;3.17;;;;;;;5.58;78.79;101031.38;5031120;28;20668;-74
2023/04/26 07:41:44;;;;;;;8.97;3.10;;;;;;;5.70;79.02;101048.78;5030827;28;20210;-74
2023/04/26 07:44:11;;;;;;;4.73;3.07;;;;;;;5.57;77.72;101064.19;5031159;28;20202;-74
2023/04/26 07:46:37;;;;;;;6.43;3.50;;;;;;;5.63;78.00;101065.09;5031277;28;20202;-74
2023/04/26 07:49:03;;;;;;;7.33;2.93;;;;;;;5.52;77.49;101081.38;5031019;28;20222;-74
2023/04/26 07:51:30;;;;;;;11.57;4.57;;;;;;;5.58;78.59;101104.75;5031178;28;20245;-74
2023/04/26 07:53:57;;;;;;;6.40;3.57;;;;;;;5.48;76.58;101094.28;5031080;28;20204;-74
2023/04/26 07:56:23;;;;;;;7.30;2.80;;;;;;;5.54;75.77;101130.59;5030766;28;20219;-74
2023/04/26 07:58:51;;;;;;;4.97;2.93;;;;;;;5.61;74.19;101150.56;5031137;28;20223;-74
2023/04/26 08:01:17;;;;;;;5.87;3.53;;;;;;;5.73;76.48;101180.94;5030935;28;20653;-74
2023/04/26 08:03:44;;;;;;;3.93;2.40;;;;;;;5.63;75.97;101142.78;5031077;28;20208;-74
2023/04/26 08:06:10;;;;;;;5.13;2.20;;;;;;;5.77;76.11;101149.03;5031139;28;20230;-74
2023/04/26 08:08:41;;;;;;;4.80;2.07;;;;;;;5.91;73.50;101163.00;5030831;28;20300;-74
2023/04/26 08:11:08;;;;;;;6.20;2.70;;;;;;;6.24;73.37;101185.00;5028234;28;20578;-74
2023/04/26 08:13:35;;;;;;;6.57;2.70;;;;;;;6.51;73.64;101212.94;5031491;28;20208;-74
2023/04/26 08:16:02;;;;;;;7.37;2.30;;;;;;;6.56;71.48;101234.63;5031421;28;20222;-74
2023/04/26 08:18:29;;;;;;;3.97;1.97;;;;;;;6.51;71.44;101266.56;5031020;28;20285;-74
2023/04/26 08:20:55;;;;;;;3.93;1.73;;;;;;;6.46;69.36;101297.63;5030899;28;20749;-74
2023/04/26 08:23:22;;;;;;;5.43;2.00;;;;;;;6.23;69.18;101340.53;5034495;28;20202;-74
2023/04/26 08:25:48;;;;;;;4.63;2.07;;;;;;;6.40;70.77;101345.94;5034631;28;20213;-74
2023/04/26 08:28:15;;;;;;;7.43;2.20;;;;;;;6.29;70.36;101362.22;5034614;28;20617;-74
2023/04/26 08:30:41;;;;;;;6.23;2.30;;;;;;;6.48;70.92;101345.19;5034754;28;20207;-74
2023/04/26 08:33:10;;;;;;;4.23;1.83;;;;;;;6.72;69.04;101325.59;5034828;28;20203;-74
2023/04/26 08:35:36;;;;;;;4.77;1.53;;;;;;;6.70;66.04;101354.09;5034747;28;20253;-74
2023/04/26 08:38:02;;;;;;;5.97;2.27;;;;;;;6.69;67.69;101412.03;5034433;28;20230;-74
2023/04/26 08:40:30;;;;;;;3.57;2.10;;;;;;;6.94;67.35;101402.81;5034562;28;20233;-72
2023/04/26 08:42:56;;;;;;;1.83;1.63;;;;;;;7.07;62.74;101468.72;5034527;28;20210;-72
2023/04/26 08:45:24;;;;;;;3.40;2.07;;;;;;;6.95;62.56;101567.22;5034626;28;20211;-72
2023/04/26 08:47:53;;;;;;;6.30;1.93;;;;;;;7.04;63.71;101569.06;5034337;28;20252;-72
2023/04/26 08:50:23;;;;;;;2.43;1.90;;;;;;;7.02;65.07;101576.84;5034320;28;20206;-72
2023/04/26 08:52:51;;;;;;;2.53;1.53;;;;;;;6.77;63.14;101598.97;5034504;28;20263;-72
2023/04/26 08:55:20;;;;;;;5.33;1.70;;;;;;;6.96;65.15;101595.78;5034257;28;20264;-72
2023/04/26 08:57:47;;;;;;;4.80;1.80;;;;;;;6.92;64.28;101556.81;5034039;28;20241;-72
2023/04/26 09:00:15;;;;;;;3.23;1.67;;;;;;;6.68;64.29;101554.69;5034092;28;20206;-72
2023/04/26 09:02:45;;;;;;;5.17;1.60;;;;;;;6.67;64.32;101552.97;5034241;28;20206;-72
2023/04/26 09:05:12;;;;;;;6.67;2.03;;;;;;;6.83;61.26;101560.13;5034087;28;20272;-72
2023/04/26 09:07:45;;;;;;;2.13;1.27;;;;;;;6.98;61.15;101580.25;5034248;28;20237;-72
2023/04/26 09:10:13;;;;;;;3.90;1.30;;;;;;;6.67;62.31;101610.91;5033912;28;20242;-72
2023/04/26 09:12:40;;;;;;;1.73;1.40;;;;;;;6.57;62.28;101620.25;5033856;28;20662;-72
2023/04/26 09:15:07;;;;;;;4.50;1.60;;;;;;;6.44;63.95;101612.25;5033981;28;20294;-72
2023/04/26 09:17:36;;;;;;;2.33;2.10;;;;;;;6.55;63.87;101587.38;5033447;28;20234;-72
2023/04/26 09:20:18;;;;;;;3.67;1.50;;;;;;;6.72;63.15;101570.34;5033991;28;20210;-72
2023/04/26 09:22:46;;;;;;;1.50;1.33;;;;;;;6.92;62.95;101569.78;5034151;28;20206;-72
2023/04/26 09:25:13;;;;;;;4.33;1.53;;;;;;;7.07;62.28;101585.53;5033687;28;20202;-72
2023/04/26 09:27:42;;;;;;;3.30;1.67;;;;;;;7.09;62.13;101581.25;5033823;28;20308;-72
2023/04/26 09:30:10;;;;;;;4.50;2.33;;;;;;;7.08;60.72;101583.84;5033312;28;20657;-72
2023/04/26 09:32:47;;;;;;;2.70;2.00;;;;;;;6.98;63.63;101593.22;5033467;28;20207;-72
2023/04/26 09:35:23;;;;;;;3.60;2.13;;;;;;;7.01;62.31;101588.06;5033407;28;20672;-72
2023/04/26 09:37:57;;;;;;;4.73;2.40;;;;;;;7.16;63.15;101574.44;5033452;28;20230;-72
2023/04/26 09:40:25;;;;;;;2.80;1.80;;;;;;;7.07;61.19;101584.69;5033503;28;20214;-72
2023/04/26 09:42:59;;;;;;;4.83;2.33;;;;;;;7.12;62.55;101585.63;5033210;28;20210;-72
2023/04/26 09:45:26;;;;;;;2.57;1.70;;;;;;;7.19;58.24;101558.00;5033561;28;20213;-72
2023/04/26 09:47:53;;;;;;;2.13;1.70;;;;;;;7.34;58.99;101611.03;5033112;28;20733;-72
2023/04/26 09:50:28;;;;;;;4.80;1.93;;;;;;;7.49;58.59;101625.06;5033156;28;20258;-72
2023/04/26 09:52:56;;;;;;;3.03;1.50;;;;;;;7.23;56.60;101669.72;5033125;28;20213;-72
2023/04/26 09:55:27;;;;;;;2.40;1.33;;;;;;;7.41;57.27;101696.81;5032978;28;20697;-72
2023/04/26 09:57:53;;;;;;;2.27;1.50;;;;;;;7.37;57.46;101734.88;5032909;28;20712;-72
2023/04/26 10:00:21;;;;;;;3.00;1.60;;;;;;;7.23;57.54;101758.03;5033202;28;20207;-71
2023/04/26 10:02:47;;;;;;;4.20;1.70;;;;;;;7.35;59.76;101759.94;5033234;28;20202;-74
2023/04/26 10:05:15;;;;;;;3.93;1.87;;;;;;;7.31;62.73;101743.47;5033037;28;20264;-74
2023/04/26 10:07:41;;;;;;;2.53;1.93;;;;;;;7.27;61.76;101688.81;5032941;28;20226;-74
2023/04/26 10:10:11;;;;;;;3.27;1.90;;;;;;;6.86;61.70;101656.19;5032801;28;20260;-73
2023/04/26 10:12:40;;;;;;;4.23;2.10;;;;;;;7.10;62.63;101647.06;5031375;28;20203;-74
2023/04/26 10:15:09;;;;;;;4.93;2.20;;;;;;;7.16;62.42;101621.16;5032900;28;20210;-74
2023/04/26 10:17:35;;;;;;;6.03;2.30;;;;;;;7.05;60.73;101607.16;5032601;28;20226;-74
2023/04/26 10:20:04;;;;;;;3.80;1.90;;;;;;;7.00;61.59;101619.19;5032324;22;20230;-74
2023/04/26 10:22:37;;;;;;;4.00;1.90;;;;;;;6.84;60.71;101606.00;5012602;28;20382;-73
2023/04/26 10:25:04;;;;;;;2.77;1.83;;;;;;;6.92;60.91;101601.78;5012740;28;20207;-73
2023/04/26 10:27:51;;;;;;;2.00;1.83;;;;;;;7.18;60.69;101597.84;5012983;28;20226;-73
2023/04/26 10:30:19;;;;;;;2.53;1.67;;;;;;;7.43;61.15;101592.06;5012723;28;20285;-74
2023/04/26 10:33:12;;;;;;;2.53;1.73;;;;;;;7.75;60.40;101589.88;5012613;28;20916;-74
2023/04/26 10:36:00;;;;;;;3.27;1.60;;;;;;;7.65;57.47;101588.03;4994154;28;20261;-74
2023/04/26 10:38:26;;;;;;;3.87;1.53;;;;;;;7.66;57.27;101641.75;5012357;28;20802;-73
2023/04/26 10:40:53;;;;;;;8.73;1.90;;;;;;;7.70;55.70;101669.50;5012523;28;20262;-74
2023/04/26 10:43:31;;;;;;;1.80;1.60;;;;;;;7.61;57.19;101711.00;5012363;28;20552;-74
2023/04/26 10:46:18;;;;;;;3.07;1.47;;;;;;;7.43;58.22;101716.75;5012653;28;20203;-73
2023/04/26 10:48:44;;;;;;;2.57;1.50;;;;;;;7.24;57.53;101713.03;5013945;28;20665;-74
2023/04/26 10:51:11;;;;;;;3.77;1.73;;;;;;;7.18;58.87;101722.47;5012736;28;20246;-73
2023/04/26 10:54:00;;;;;;;2.67;1.77;;;;;;;7.23;61.03;101687.91;5012441;28;20281;-73
2023/04/26 10:56:52;;;;;;;2.67;2.23;;;;;;;7.24;61.35;101634.28;5012362;28;20319;-74
2023/04/26 10:59:23;;;;;;;5.80;2.20;;;;;;;7.36;62.25;101606.72;5012414;28;20211;-74
2023/04/26 11:01:52;;;;;;;3.20;2.17;;;;;;;7.49;61.49;101576.59;5012197;28;20214;-74
2023/04/26 11:04:18;;;;;;;5.80;2.30;;;;;;;7.51;60.83;101561.00;5012017;28;20204;-74
2023/04/26 11:06:50;;;;;;;2.20;2.00;;;;;;;7.39;56.88;101571.25;5012165;28;20203;-74
2023/04/26 11:09:36;;;;;;;3.77;1.80;;;;;;;7.53;57.05;101625.13;5012153;28;20210;-74
2023/04/26 11:12:07;;;;;;;1.67;1.50;;;;;;;7.75;58.53;101654.84;5019870;28;20210;-73
2023/04/26 11:14:35;;;;;;;2.50;1.80;;;;;;;7.96;57.50;101655.97;5031606;28;20203;-73
2023/04/26 11:17:03;;;;;;;2.20;1.47;;;;;;;8.31;56.63;101655.47;5031802;28;20252;-73
2023/04/26 11:19:30;;;;;;;2.30;1.37;;;;;;;8.58;51.90;101644.47;5031712;28;20309;-74
2023/04/26 11:21:57;;;;;;;4.47;1.60;;;;;;;8.85;50.69;101713.25;5031972;28;20215;-74
2023/04/26 11:24:26;;;;;;;1.50;1.40;;;;;;;8.65;54.27;101831.06;5031942;28;20209;-74
2023/04/26 11:26:53;;;;;;;2.33;1.40;;;;;;;8.54;51.69;101814.47;5031634;28;20207;-73
2023/04/26 11:29:20;;;;;;;1.70;1.53;;;;;;;8.16;52.84;101853.84;5031578;28;20904;-73
2023/04/26 11:31:53;;;;;;;1.60;1.40;;;;;;;8.18;52.17;101872.94;5031913;28;20226;-73
2023/04/26 11:34:23;;;;;;;3.13;2.47;;;;;;;7.82;53.68;101902.75;5031955;28;20214;-74
2023/04/26 11:36:51;;;;;;;3.03;2.23;;;;;;;7.81;54.36;101888.00;5031740;28;20230;-73